sensor_id;sensor_type;location;lat;lon;timestamp;temperature;humidity
11025;DHT22;22890;51.820;8.682;2022-07-12T00:01:54;15.30;99.90
11025;DHT22;22890;51.820;8.682;2022-07-12T00:04:21;15.30;99.90
11025;DHT22;22890;51.820;8.682;2022-07-12T00:06:48;15.20;99.90
11025;DHT22;22890;51.820;8.682;2022-07-12T00:09:15;15.30;99.90
11025;DHT22;22890;51.820;8.682;2022-07-12T00:11:41;15.10;99.90
11025;DHT22;22890;51.820;8.682;2022-07-12T00:14:08;14.90;99.90
11025;DHT22;22890;51.820;8.682;2022-07-12T00:16:36;14.90;99.90
11025;DHT22;22890;51.820;8.682;2022-07-12T00:19:03;14.90;99.90
11025;DHT22;22890;51.820;8.682;2022-07-12T00:21:29;14.80;99.90
11025;DHT22;22890;51.820;8.682;2022-07-12T00:23:56;14.80;99.90
11025;DHT22;22890;51.820;8.682;2022-07-12T00:26:22;14.70;99.90
11025;DHT22;22890;51.820;8.682;2022-07-12T00:28:49;14.70;99.90
11025;DHT22;22890;51.820;8.682;2022-07-12T00:31:16;14.70;99.90
11025;DHT22;22890;51.820;8.682;2022-07-12T00:33:43;14.60;99.90
11025;DHT22;22890;51.820;8.682;2022-07-12T00:36:09;14.50;99.90
11025;DHT22;22890;51.820;8.682;2022-07-12T00:38:36;14.60;99.90
11025;DHT22;22890;51.820;8.682;2022-07-12T00:41:02;14.50;99.90
11025;DHT22;22890;51.820;8.682;2022-07-12T00:43:29;14.50;99.90
11025;DHT22;22890;51.820;8.682;2022-07-12T00:45:56;14.40;99.90
11025;DHT22;22890;51.820;8.682;2022-07-12T00:48:23;14.50;99.90
11025;DHT22;22890;51.820;8.682;2022-07-12T00:50:50;14.30;99.90
11025;DHT22;22890;51.820;8.682;2022-07-12T00:53:17;14.30;99.90
11025;DHT22;22890;51.820;8.682;2022-07-12T00:55:56;14.30;99.90
11025;DHT22;22890;51.820;8.682;2022-07-12T00:58:24;14.30;99.90
11025;DHT22;22890;51.820;8.682;2022-07-12T01:00:51;14.20;99.90
11025;DHT22;22890;51.820;8.682;2022-07-12T01:03:18;14.10;99.90
11025;DHT22;22890;51.820;8.682;2022-07-12T01:05:45;14.10;99.90
11025;DHT22;22890;51.820;8.682;2022-07-12T01:08:13;14.00;99.90
11025;DHT22;22890;51.820;8.682;2022-07-12T01:10:41;14.00;99.90
11025;DHT22;22890;51.820;8.682;2022-07-12T01:13:09;13.90;99.90
11025;DHT22;22890;51.820;8.682;2022-07-12T01:15:36;13.90;99.90
11025;DHT22;22890;51.820;8.682;2022-07-12T01:18:03;13.90;99.90
11025;DHT22;22890;51.820;8.682;2022-07-12T01:20:32;13.90;99.90
11025;DHT22;22890;51.820;8.682;2022-07-12T01:22:59;13.90;99.90
11025;DHT22;22890;51.820;8.682;2022-07-12T01:25:27;13.80;99.90
11025;DHT22;22890;51.820;8.682;2022-07-12T01:27:53;13.70;99.90
11025;DHT22;22890;51.820;8.682;2022-07-12T01:30:20;13.70;99.90
11025;DHT22;22890;51.820;8.682;2022-07-12T01:32:47;13.70;99.90
11025;DHT22;22890;51.820;8.682;2022-07-12T01:35:15;13.70;99.90
11025;DHT22;22890;51.820;8.682;2022-07-12T01:37:42;13.80;99.90
11025;DHT22;22890;51.820;8.682;2022-07-12T01:40:11;13.60;99.90
11025;DHT22;22890;51.820;8.682;2022-07-12T01:42:38;13.60;99.90
11025;DHT22;22890;51.820;8.682;2022-07-12T01:45:07;13.60;99.90
11025;DHT22;22890;51.820;8.682;2022-07-12T01:47:34;13.60;99.90
11025;DHT22;22890;51.820;8.682;2022-07-12T01:50:11;13.50;99.90
11025;DHT22;22890;51.820;8.682;2022-07-12T01:52:39;13.60;99.90
11025;DHT22;22890;51.820;8.682;2022-07-12T01:55:08;13.50;99.90
11025;DHT22;22890;51.820;8.682;2022-07-12T01:57:35;13.50;99.90
11025;DHT22;22890;51.820;8.682;2022-07-12T02:00:04;13.50;99.90
11025;DHT22;22890;51.820;8.682;2022-07-12T02:02:32;13.40;99.90
11025;DHT22;22890;51.820;8.682;2022-07-12T02:05:00;13.40;99.90
11025;DHT22;22890;51.820;8.682;2022-07-12T02:07:27;13.40;99.90
11025;DHT22;22890;51.820;8.682;2022-07-12T02:09:54;13.40;99.90
11025;DHT22;22890;51.820;8.682;2022-07-12T02:12:20;13.40;99.90
11025;DHT22;22890;51.820;8.682;2022-07-12T02:14:47;13.40;99.90
11025;DHT22;22890;51.820;8.682;2022-07-12T02:17:14;13.40;99.90
11025;DHT22;22890;51.820;8.682;2022-07-12T02:19:41;13.50;99.90
11025;DHT22;22890;51.820;8.682;2022-07-12T02:22:07;13.30;99.90
11025;DHT22;22890;51.820;8.682;2022-07-12T02:24:34;13.30;99.90
11025;DHT22;22890;51.820;8.682;2022-07-12T02:27:01;13.30;99.90
11025;DHT22;22890;51.820;8.682;2022-07-12T02:29:27;13.30;99.90
11025;DHT22;22890;51.820;8.682;2022-07-12T02:31:54;13.20;99.90
11025;DHT22;22890;51.820;8.682;2022-07-12T02:34:21;13.20;99.90
11025;DHT22;22890;51.820;8.682;2022-07-12T02:36:47;13.20;99.90
11025;DHT22;22890;51.820;8.682;2022-07-12T02:39:14;13.20;99.90
11025;DHT22;22890;51.820;8.682;2022-07-12T02:41:41;13.20;99.90
11025;DHT22;22890;51.820;8.682;2022-07-12T02:44:07;13.20;99.90
11025;DHT22;22890;51.820;8.682;2022-07-12T02:46:34;13.20;99.90
11025;DHT22;22890;51.820;8.682;2022-07-12T02:49:02;13.10;99.90
11025;DHT22;22890;51.820;8.682;2022-07-12T02:51:28;13.10;99.90
11025;DHT22;22890;51.820;8.682;2022-07-12T02:53:55;13.10;99.90
11025;DHT22;22890;51.820;8.682;2022-07-12T02:56:22;13.10;99.90
11025;DHT22;22890;51.820;8.682;2022-07-12T02:58:48;13.10;99.90
11025;DHT22;22890;51.820;8.682;2022-07-12T03:01:15;13.00;99.90
11025;DHT22;22890;51.820;8.682;2022-07-12T03:03:42;13.00;99.90
11025;DHT22;22890;51.820;8.682;2022-07-12T03:06:08;13.00;99.90
11025;DHT22;22890;51.820;8.682;2022-07-12T03:08:35;13.00;99.90
11025;DHT22;22890;51.820;8.682;2022-07-12T03:11:02;13.00;99.90
11025;DHT22;22890;51.820;8.682;2022-07-12T03:13:28;13.00;99.90
11025;DHT22;22890;51.820;8.682;2022-07-12T03:15:55;13.00;99.90
11025;DHT22;22890;51.820;8.682;2022-07-12T03:18:22;13.10;99.90
11025;DHT22;22890;51.820;8.682;2022-07-12T03:20:48;13.00;99.90
11025;DHT22;22890;51.820;8.682;2022-07-12T03:23:15;13.00;99.90
11025;DHT22;22890;51.820;8.682;2022-07-12T03:25:42;13.00;99.90
11025;DHT22;22890;51.820;8.682;2022-07-12T03:28:09;13.00;99.90
11025;DHT22;22890;51.820;8.682;2022-07-12T03:30:36;13.10;99.90
11025;DHT22;22890;51.820;8.682;2022-07-12T03:33:03;13.10;99.90
11025;DHT22;22890;51.820;8.682;2022-07-12T03:35:29;13.10;99.90
11025;DHT22;22890;51.820;8.682;2022-07-12T03:37:56;13.10;99.90
11025;DHT22;22890;51.820;8.682;2022-07-12T03:40:22;15.40;99.90
11025;DHT22;22890;51.820;8.682;2022-07-12T03:42:49;13.00;99.90
11025;DHT22;22890;51.820;8.682;2022-07-12T03:45:18;13.10;99.90
11025;DHT22;22890;51.820;8.682;2022-07-12T03:47:45;13.00;99.90
11025;DHT22;22890;51.820;8.682;2022-07-12T03:50:13;13.00;99.90
11025;DHT22;22890;51.820;8.682;2022-07-12T03:52:41;13.10;99.90
11025;DHT22;22890;51.820;8.682;2022-07-12T03:55:09;13.10;99.90
11025;DHT22;22890;51.820;8.682;2022-07-12T03:57:36;13.10;99.90
11025;DHT22;22890;51.820;8.682;2022-07-12T04:00:06;13.10;99.90
11025;DHT22;22890;51.820;8.682;2022-07-12T04:02:35;13.10;99.90
11025;DHT22;22890;51.820;8.682;2022-07-12T04:05:02;13.20;99.90
11025;DHT22;22890;51.820;8.682;2022-07-12T04:07:28;13.20;99.90
11025;DHT22;22890;51.820;8.682;2022-07-12T04:09:55;13.20;99.90
11025;DHT22;22890;51.820;8.682;2022-07-12T04:12:21;13.20;99.90
11025;DHT22;22890;51.820;8.682;2022-07-12T04:14:48;13.20;99.90
11025;DHT22;22890;51.820;8.682;2022-07-12T04:17:15;13.20;99.90
11025;DHT22;22890;51.820;8.682;2022-07-12T04:19:41;13.30;99.90
11025;DHT22;22890;51.820;8.682;2022-07-12T04:22:08;13.30;99.90
11025;DHT22;22890;51.820;8.682;2022-07-12T04:24:35;13.40;99.90
11025;DHT22;22890;51.820;8.682;2022-07-12T04:27:01;13.40;99.90
11025;DHT22;22890;51.820;8.682;2022-07-12T04:29:28;13.40;99.90
11025;DHT22;22890;51.820;8.682;2022-07-12T04:31:55;13.50;99.90
11025;DHT22;22890;51.820;8.682;2022-07-12T04:34:21;13.50;99.90
11025;DHT22;22890;51.820;8.682;2022-07-12T04:36:49;13.60;99.90
11025;DHT22;22890;51.820;8.682;2022-07-12T04:39:15;13.60;99.90
11025;DHT22;22890;51.820;8.682;2022-07-12T04:41:42;13.80;99.90
11025;DHT22;22890;51.820;8.682;2022-07-12T04:44:09;13.70;99.90
11025;DHT22;22890;51.820;8.682;2022-07-12T04:46:35;13.80;99.90
11025;DHT22;22890;51.820;8.682;2022-07-12T04:49:02;13.80;99.90
11025;DHT22;22890;51.820;8.682;2022-07-12T04:51:29;13.90;99.90
11025;DHT22;22890;51.820;8.682;2022-07-12T04:53:56;14.00;99.90
11025;DHT22;22890;51.820;8.682;2022-07-12T04:56:22;14.10;99.90
11025;DHT22;22890;51.820;8.682;2022-07-12T04:58:49;14.10;99.90
11025;DHT22;22890;51.820;8.682;2022-07-12T05:01:16;14.20;99.90
11025;DHT22;22890;51.820;8.682;2022-07-12T05:03:43;14.40;99.90
11025;DHT22;22890;51.820;8.682;2022-07-12T05:06:10;14.40;99.90
11025;DHT22;22890;51.820;8.682;2022-07-12T05:08:36;14.40;99.90
11025;DHT22;22890;51.820;8.682;2022-07-12T05:11:03;14.60;99.90
11025;DHT22;22890;51.820;8.682;2022-07-12T05:13:30;14.50;99.90
11025;DHT22;22890;51.820;8.682;2022-07-12T05:15:57;15.70;99.90
11025;DHT22;22890;51.820;8.682;2022-07-12T05:18:23;14.70;99.90
11025;DHT22;22890;51.820;8.682;2022-07-12T05:20:50;14.70;99.90
11025;DHT22;22890;51.820;8.682;2022-07-12T05:23:18;14.80;99.90
11025;DHT22;22890;51.820;8.682;2022-07-12T05:25:45;14.80;99.90
11025;DHT22;22890;51.820;8.682;2022-07-12T05:28:14;14.90;99.90
11025;DHT22;22890;51.820;8.682;2022-07-12T05:30:42;14.90;99.90
11025;DHT22;22890;51.820;8.682;2022-07-12T05:33:10;15.00;99.90
11025;DHT22;22890;51.820;8.682;2022-07-12T05:35:38;15.20;99.90
11025;DHT22;22890;51.820;8.682;2022-07-12T05:38:05;15.10;99.90
11025;DHT22;22890;51.820;8.682;2022-07-12T05:40:32;15.10;99.90
11025;DHT22;22890;51.820;8.682;2022-07-12T05:42:58;15.20;99.90
11025;DHT22;22890;51.820;8.682;2022-07-12T05:45:25;15.20;99.90
11025;DHT22;22890;51.820;8.682;2022-07-12T05:47:52;15.20;99.90
11025;DHT22;22890;51.820;8.682;2022-07-12T05:50:19;15.30;99.90
11025;DHT22;22890;51.820;8.682;2022-07-12T05:52:45;15.50;99.90
11025;DHT22;22890;51.820;8.682;2022-07-12T05:55:31;15.40;99.90
11025;DHT22;22890;51.820;8.682;2022-07-12T05:57:57;15.60;99.90
11025;DHT22;22890;51.820;8.682;2022-07-12T06:00:24;15.60;99.90
11025;DHT22;22890;51.820;8.682;2022-07-12T06:02:51;15.70;99.90
11025;DHT22;22890;51.820;8.682;2022-07-12T06:05:18;16.00;99.90
11025;DHT22;22890;51.820;8.682;2022-07-12T06:07:45;16.00;99.90
11025;DHT22;22890;51.820;8.682;2022-07-12T06:10:12;16.00;99.90
11025;DHT22;22890;51.820;8.682;2022-07-12T06:12:38;16.00;99.90
11025;DHT22;22890;51.820;8.682;2022-07-12T06:15:05;16.10;99.90
11025;DHT22;22890;51.820;8.682;2022-07-12T06:17:33;16.20;99.90
11025;DHT22;22890;51.820;8.682;2022-07-12T06:20:00;16.30;99.90
11025;DHT22;22890;51.820;8.682;2022-07-12T06:22:27;16.50;99.90
11025;DHT22;22890;51.820;8.682;2022-07-12T06:24:53;16.50;99.90
11025;DHT22;22890;51.820;8.682;2022-07-12T06:27:20;16.60;99.90
11025;DHT22;22890;51.820;8.682;2022-07-12T06:29:47;16.70;99.90
11025;DHT22;22890;51.820;8.682;2022-07-12T06:32:16;16.70;99.90
11025;DHT22;22890;51.820;8.682;2022-07-12T06:34:43;17.00;99.90
11025;DHT22;22890;51.820;8.682;2022-07-12T06:37:10;16.90;99.90
11025;DHT22;22890;51.820;8.682;2022-07-12T06:39:39;17.00;99.90
11025;DHT22;22890;51.820;8.682;2022-07-12T06:42:06;17.10;99.90
11025;DHT22;22890;51.820;8.682;2022-07-12T06:44:33;17.20;99.90
11025;DHT22;22890;51.820;8.682;2022-07-12T06:47:00;17.40;99.90
11025;DHT22;22890;51.820;8.682;2022-07-12T06:49:27;17.50;99.90
11025;DHT22;22890;51.820;8.682;2022-07-12T06:51:53;17.70;99.90
11025;DHT22;22890;51.820;8.682;2022-07-12T06:54:20;17.80;99.90
11025;DHT22;22890;51.820;8.682;2022-07-12T06:56:47;17.90;99.90
11025;DHT22;22890;51.820;8.682;2022-07-12T06:59:13;18.00;99.90
11025;DHT22;22890;51.820;8.682;2022-07-12T07:01:42;18.00;99.90
11025;DHT22;22890;51.820;8.682;2022-07-12T07:04:09;18.20;99.90
11025;DHT22;22890;51.820;8.682;2022-07-12T07:06:36;18.30;99.90
11025;DHT22;22890;51.820;8.682;2022-07-12T07:09:02;18.40;99.90
11025;DHT22;22890;51.820;8.682;2022-07-12T07:11:34;18.60;99.90
11025;DHT22;22890;51.820;8.682;2022-07-12T07:14:01;18.80;99.90
11025;DHT22;22890;51.820;8.682;2022-07-12T07:16:28;18.80;99.90
11025;DHT22;22890;51.820;8.682;2022-07-12T07:18:55;18.90;99.90
11025;DHT22;22890;51.820;8.682;2022-07-12T07:21:21;18.90;99.90
11025;DHT22;22890;51.820;8.682;2022-07-12T07:23:48;18.90;99.90
11025;DHT22;22890;51.820;8.682;2022-07-12T07:26:14;19.00;99.90
11025;DHT22;22890;51.820;8.682;2022-07-12T07:28:41;19.10;99.90
11025;DHT22;22890;51.820;8.682;2022-07-12T07:31:27;19.10;99.90
11025;DHT22;22890;51.820;8.682;2022-07-12T07:33:53;19.10;99.90
11025;DHT22;22890;51.820;8.682;2022-07-12T07:36:20;19.20;99.90
11025;DHT22;22890;51.820;8.682;2022-07-12T07:38:46;19.20;99.90
11025;DHT22;22890;51.820;8.682;2022-07-12T07:41:13;19.30;99.90
11025;DHT22;22890;51.820;8.682;2022-07-12T07:43:40;19.40;99.90
11025;DHT22;22890;51.820;8.682;2022-07-12T07:46:06;19.50;99.90
11025;DHT22;22890;51.820;8.682;2022-07-12T07:48:33;19.70;99.90
11025;DHT22;22890;51.820;8.682;2022-07-12T07:50:59;19.80;99.90
11025;DHT22;22890;51.820;8.682;2022-07-12T07:53:26;19.90;99.90
11025;DHT22;22890;51.820;8.682;2022-07-12T07:55:53;20.00;99.90
11025;DHT22;22890;51.820;8.682;2022-07-12T07:58:19;20.10;99.90
11025;DHT22;22890;51.820;8.682;2022-07-12T08:00:50;20.10;99.90
11025;DHT22;22890;51.820;8.682;2022-07-12T08:03:18;20.10;99.90
11025;DHT22;22890;51.820;8.682;2022-07-12T08:05:46;18.70;99.90
11025;DHT22;22890;51.820;8.682;2022-07-12T08:08:12;20.30;99.90
11025;DHT22;22890;51.820;8.682;2022-07-12T08:10:39;20.40;99.90
11025;DHT22;22890;51.820;8.682;2022-07-12T08:13:06;20.60;99.90
11025;DHT22;22890;51.820;8.682;2022-07-12T08:15:33;20.60;99.90
11025;DHT22;22890;51.820;8.682;2022-07-12T08:18:00;20.60;99.90
11025;DHT22;22890;51.820;8.682;2022-07-12T08:20:27;20.60;99.90
11025;DHT22;22890;51.820;8.682;2022-07-12T08:23:12;20.60;99.90
11025;DHT22;22890;51.820;8.682;2022-07-12T08:25:39;20.70;99.90
11025;DHT22;22890;51.820;8.682;2022-07-12T08:28:05;20.70;99.90
11025;DHT22;22890;51.820;8.682;2022-07-12T08:30:32;20.90;99.90
11025;DHT22;22890;51.820;8.682;2022-07-12T08:32:59;20.90;99.90
11025;DHT22;22890;51.820;8.682;2022-07-12T08:35:27;21.00;99.90
11025;DHT22;22890;51.820;8.682;2022-07-12T08:37:53;21.10;99.90
11025;DHT22;22890;51.820;8.682;2022-07-12T08:40:20;21.20;99.90
11025;DHT22;22890;51.820;8.682;2022-07-12T08:42:47;21.40;99.90
11025;DHT22;22890;51.820;8.682;2022-07-12T08:45:15;21.60;99.90
11025;DHT22;22890;51.820;8.682;2022-07-12T08:47:42;21.70;99.90
11025;DHT22;22890;51.820;8.682;2022-07-12T08:50:19;21.80;99.90
11025;DHT22;22890;51.820;8.682;2022-07-12T08:52:48;21.80;99.90
11025;DHT22;22890;51.820;8.682;2022-07-12T08:55:23;22.00;99.90
11025;DHT22;22890;51.820;8.682;2022-07-12T08:57:53;22.10;99.90
11025;DHT22;22890;51.820;8.682;2022-07-12T09:00:21;22.10;99.90
11025;DHT22;22890;51.820;8.682;2022-07-12T09:02:50;22.20;99.90
11025;DHT22;22890;51.820;8.682;2022-07-12T09:05:23;22.30;99.90
11025;DHT22;22890;51.820;8.682;2022-07-12T09:07:51;22.30;99.90
11025;DHT22;22890;51.820;8.682;2022-07-12T09:10:18;22.40;99.90
11025;DHT22;22890;51.820;8.682;2022-07-12T09:12:45;22.30;99.90
11025;DHT22;22890;51.820;8.682;2022-07-12T09:15:18;22.30;99.90
11025;DHT22;22890;51.820;8.682;2022-07-12T09:23:00;22.20;99.90
11025;DHT22;22890;51.820;8.682;2022-07-12T09:25:27;22.10;99.90
11025;DHT22;22890;51.820;8.682;2022-07-12T09:27:56;22.20;99.90
11025;DHT22;22890;51.820;8.682;2022-07-12T09:30:24;22.40;99.90
11025;DHT22;22890;51.820;8.682;2022-07-12T09:33:00;22.50;99.90
11025;DHT22;22890;51.820;8.682;2022-07-12T09:38:34;22.70;99.90
11025;DHT22;22890;51.820;8.682;2022-07-12T09:41:01;22.60;99.90
11025;DHT22;22890;51.820;8.682;2022-07-12T09:43:28;22.50;99.90
11025;DHT22;22890;51.820;8.682;2022-07-12T09:45:56;22.60;99.90
11025;DHT22;22890;51.820;8.682;2022-07-12T09:48:26;22.80;99.90
11025;DHT22;22890;51.820;8.682;2022-07-12T09:50:54;22.90;99.90
11025;DHT22;22890;51.820;8.682;2022-07-12T09:53:30;23.00;99.90
11025;DHT22;22890;51.820;8.682;2022-07-12T09:56:04;23.00;99.90
11025;DHT22;22890;51.820;8.682;2022-07-12T09:58:53;23.00;99.90
11025;DHT22;22890;51.820;8.682;2022-07-12T10:01:21;22.90;99.90
11025;DHT22;22890;51.820;8.682;2022-07-12T10:03:48;23.10;99.90
11025;DHT22;22890;51.820;8.682;2022-07-12T10:06:27;23.10;99.90
11025;DHT22;22890;51.820;8.682;2022-07-12T10:09:01;23.00;99.90
11025;DHT22;22890;51.820;8.682;2022-07-12T10:11:28;23.10;99.90
11025;DHT22;22890;51.820;8.682;2022-07-12T10:14:15;23.10;99.90
11025;DHT22;22890;51.820;8.682;2022-07-12T10:16:43;23.20;99.90
11025;DHT22;22890;51.820;8.682;2022-07-12T10:19:28;23.20;99.90
11025;DHT22;22890;51.820;8.682;2022-07-12T10:21:59;23.30;99.90
11025;DHT22;22890;51.820;8.682;2022-07-12T10:29:41;23.50;99.90
11025;DHT22;22890;51.820;8.682;2022-07-12T10:32:25;23.50;99.90
11025;DHT22;22890;51.820;8.682;2022-07-12T10:37:25;23.50;99.90
11025;DHT22;22890;51.820;8.682;2022-07-12T10:40:18;23.50;99.90
11025;DHT22;22890;51.820;8.682;2022-07-12T10:45:32;23.50;99.90
11025;DHT22;22890;51.820;8.682;2022-07-12T10:48:04;23.50;99.90
11025;DHT22;22890;51.820;8.682;2022-07-12T10:56:09;23.70;99.90
11025;DHT22;22890;51.820;8.682;2022-07-12T10:58:38;23.70;99.90
11025;DHT22;22890;51.820;8.682;2022-07-12T11:01:07;23.80;99.90
11025;DHT22;22890;51.820;8.682;2022-07-12T11:03:53;23.80;99.90
11025;DHT22;22890;51.820;8.682;2022-07-12T11:06:25;22.60;99.90
11025;DHT22;22890;51.820;8.682;2022-07-12T11:08:58;23.80;99.90
11025;DHT22;22890;51.820;8.682;2022-07-12T11:11:31;23.80;99.90
11025;DHT22;22890;51.820;8.682;2022-07-12T11:13:58;23.80;99.90
11025;DHT22;22890;51.820;8.682;2022-07-12T11:16:26;23.90;99.90
11025;DHT22;22890;51.820;8.682;2022-07-12T11:18:53;24.00;99.90
11025;DHT22;22890;51.820;8.682;2022-07-12T11:21:20;24.00;99.90
11025;DHT22;22890;51.820;8.682;2022-07-12T11:23:48;24.10;99.90
11025;DHT22;22890;51.820;8.682;2022-07-12T11:26:16;24.20;99.90
11025;DHT22;22890;51.820;8.682;2022-07-12T11:28:44;24.20;99.90
11025;DHT22;22890;51.820;8.682;2022-07-12T11:31:16;24.20;99.90
11025;DHT22;22890;51.820;8.682;2022-07-12T11:33:45;24.30;99.90
11025;DHT22;22890;51.820;8.682;2022-07-12T11:36:14;24.40;99.90
11025;DHT22;22890;51.820;8.682;2022-07-12T11:38:43;24.40;99.90
11025;DHT22;22890;51.820;8.682;2022-07-12T11:41:12;24.50;99.90
11025;DHT22;22890;51.820;8.682;2022-07-12T11:43:39;24.50;99.90
11025;DHT22;22890;51.820;8.682;2022-07-12T11:46:07;24.60;99.90
11025;DHT22;22890;51.820;8.682;2022-07-12T11:48:36;24.70;99.90
11025;DHT22;22890;51.820;8.682;2022-07-12T11:51:07;24.80;99.90
11025;DHT22;22890;51.820;8.682;2022-07-12T11:53:35;24.80;99.90
11025;DHT22;22890;51.820;8.682;2022-07-12T11:56:04;24.90;99.90
11025;DHT22;22890;51.820;8.682;2022-07-12T11:58:31;24.90;99.90
11025;DHT22;22890;51.820;8.682;2022-07-12T12:01:09;24.90;99.90
11025;DHT22;22890;51.820;8.682;2022-07-12T12:03:44;25.00;99.90
11025;DHT22;22890;51.820;8.682;2022-07-12T12:06:12;25.00;99.90
11025;DHT22;22890;51.820;8.682;2022-07-12T12:08:38;25.00;99.90
11025;DHT22;22890;51.820;8.682;2022-07-12T12:11:05;25.10;99.90
11025;DHT22;22890;51.820;8.682;2022-07-12T12:13:32;25.20;99.90
11025;DHT22;22890;51.820;8.682;2022-07-12T12:16:01;25.20;99.90
11025;DHT22;22890;51.820;8.682;2022-07-12T12:18:39;25.40;99.90
11025;DHT22;22890;51.820;8.682;2022-07-12T12:21:08;25.40;99.90
11025;DHT22;22890;51.820;8.682;2022-07-12T12:23:36;25.30;99.90
11025;DHT22;22890;51.820;8.682;2022-07-12T12:26:17;25.30;99.90
11025;DHT22;22890;51.820;8.682;2022-07-12T12:28:48;25.40;99.90
11025;DHT22;22890;51.820;8.682;2022-07-12T12:31:18;25.40;99.90
11025;DHT22;22890;51.820;8.682;2022-07-12T12:33:47;25.40;99.90
11025;DHT22;22890;51.820;8.682;2022-07-12T12:38:45;25.60;99.90
11025;DHT22;22890;51.820;8.682;2022-07-12T12:41:13;25.60;99.90
11025;DHT22;22890;51.820;8.682;2022-07-12T12:43:41;25.70;99.90
11025;DHT22;22890;51.820;8.682;2022-07-12T12:46:08;25.70;99.90
11025;DHT22;22890;51.820;8.682;2022-07-12T12:48:35;25.70;99.90
11025;DHT22;22890;51.820;8.682;2022-07-12T12:51:07;25.80;99.90
11025;DHT22;22890;51.820;8.682;2022-07-12T12:53:35;25.90;99.90
11025;DHT22;22890;51.820;8.682;2022-07-12T12:56:09;25.90;99.90
11025;DHT22;22890;51.820;8.682;2022-07-12T12:58:37;25.90;99.90
11025;DHT22;22890;51.820;8.682;2022-07-12T13:01:05;25.90;99.90
11025;DHT22;22890;51.820;8.682;2022-07-12T13:03:32;25.90;99.90
11025;DHT22;22890;51.820;8.682;2022-07-12T13:05:59;25.90;99.90
11025;DHT22;22890;51.820;8.682;2022-07-12T13:08:28;25.90;99.90
11025;DHT22;22890;51.820;8.682;2022-07-12T13:10:54;26.00;99.90
11025;DHT22;22890;51.820;8.682;2022-07-12T13:13:40;26.00;99.90
11025;DHT22;22890;51.820;8.682;2022-07-12T13:16:07;26.00;99.90
11025;DHT22;22890;51.820;8.682;2022-07-12T13:18:34;24.90;99.90
11025;DHT22;22890;51.820;8.682;2022-07-12T13:21:01;26.00;99.90
11025;DHT22;22890;51.820;8.682;2022-07-12T13:23:28;26.00;99.90
11025;DHT22;22890;51.820;8.682;2022-07-12T13:25:55;26.00;99.90
11025;DHT22;22890;51.820;8.682;2022-07-12T13:28:22;26.00;99.70
11025;DHT22;22890;51.820;8.682;2022-07-12T13:30:48;26.10;99.10
11025;DHT22;22890;51.820;8.682;2022-07-12T13:33:15;26.10;99.30
11025;DHT22;22890;51.820;8.682;2022-07-12T13:35:42;26.10;99.40
11025;DHT22;22890;51.820;8.682;2022-07-12T13:38:09;26.20;99.70
11025;DHT22;22890;51.820;8.682;2022-07-12T13:40:36;26.20;99.90
11025;DHT22;22890;51.820;8.682;2022-07-12T13:43:02;26.30;99.70
11025;DHT22;22890;51.820;8.682;2022-07-12T13:45:30;26.40;99.90
11025;DHT22;22890;51.820;8.682;2022-07-12T13:47:59;26.40;99.90
11025;DHT22;22890;51.820;8.682;2022-07-12T13:50:26;26.40;99.90
11025;DHT22;22890;51.820;8.682;2022-07-12T13:52:58;26.40;99.90
11025;DHT22;22890;51.820;8.682;2022-07-12T13:55:26;26.40;99.90
11025;DHT22;22890;51.820;8.682;2022-07-12T13:57:53;26.50;99.90
11025;DHT22;22890;51.820;8.682;2022-07-12T14:00:19;26.50;99.50
11025;DHT22;22890;51.820;8.682;2022-07-12T14:02:48;26.50;99.60
11025;DHT22;22890;51.820;8.682;2022-07-12T14:05:19;26.60;99.60
11025;DHT22;22890;51.820;8.682;2022-07-12T14:07:46;26.60;99.60
11025;DHT22;22890;51.820;8.682;2022-07-12T14:10:14;26.70;99.70
11025;DHT22;22890;51.820;8.682;2022-07-12T14:12:41;26.70;99.80
11025;DHT22;22890;51.820;8.682;2022-07-12T14:15:08;26.70;99.50
11025;DHT22;22890;51.820;8.682;2022-07-12T14:17:35;26.70;99.50
11025;DHT22;22890;51.820;8.682;2022-07-12T14:20:02;26.70;99.60
11025;DHT22;22890;51.820;8.682;2022-07-12T14:22:29;26.60;99.90
11025;DHT22;22890;51.820;8.682;2022-07-12T14:24:57;26.60;99.90
11025;DHT22;22890;51.820;8.682;2022-07-12T14:27:25;26.60;99.90
11025;DHT22;22890;51.820;8.682;2022-07-12T14:29:51;26.60;99.90
11025;DHT22;22890;51.820;8.682;2022-07-12T14:32:18;26.70;99.90
11025;DHT22;22890;51.820;8.682;2022-07-12T14:34:45;26.70;99.90
11025;DHT22;22890;51.820;8.682;2022-07-12T14:37:11;26.70;99.90
11025;DHT22;22890;51.820;8.682;2022-07-12T14:39:38;26.70;99.90
11025;DHT22;22890;51.820;8.682;2022-07-12T14:42:05;26.80;99.90
11025;DHT22;22890;51.820;8.682;2022-07-12T14:44:32;26.80;99.90
11025;DHT22;22890;51.820;8.682;2022-07-12T14:46:59;26.80;99.90
11025;DHT22;22890;51.820;8.682;2022-07-12T14:49:26;26.80;99.90
11025;DHT22;22890;51.820;8.682;2022-07-12T14:51:54;26.80;99.90
11025;DHT22;22890;51.820;8.682;2022-07-12T14:54:21;26.70;99.80
11025;DHT22;22890;51.820;8.682;2022-07-12T14:56:47;26.70;99.90
11025;DHT22;22890;51.820;8.682;2022-07-12T14:59:18;26.70;99.90
11025;DHT22;22890;51.820;8.682;2022-07-12T15:01:45;26.80;99.90
11025;DHT22;22890;51.820;8.682;2022-07-12T15:04:12;26.80;99.90
11025;DHT22;22890;51.820;8.682;2022-07-12T15:06:38;24.50;98.80
11025;DHT22;22890;51.820;8.682;2022-07-12T15:09:05;26.80;99.80
11025;DHT22;22890;51.820;8.682;2022-07-12T15:11:32;26.90;99.90
11025;DHT22;22890;51.820;8.682;2022-07-12T15:13:59;26.90;99.60
11025;DHT22;22890;51.820;8.682;2022-07-12T15:16:26;27.00;99.50
11025;DHT22;22890;51.820;8.682;2022-07-12T15:18:52;27.00;99.60
11025;DHT22;22890;51.820;8.682;2022-07-12T15:21:19;27.00;99.70
11025;DHT22;22890;51.820;8.682;2022-07-12T15:23:46;27.10;99.60
11025;DHT22;22890;51.820;8.682;2022-07-12T15:26:12;27.10;99.40
11025;DHT22;22890;51.820;8.682;2022-07-12T15:28:51;27.20;99.20
11025;DHT22;22890;51.820;8.682;2022-07-12T15:31:18;27.20;98.90
11025;DHT22;22890;51.820;8.682;2022-07-12T15:33:45;27.30;98.70
11025;DHT22;22890;51.820;8.682;2022-07-12T15:36:12;27.30;98.50
11025;DHT22;22890;51.820;8.682;2022-07-12T15:38:41;27.40;98.40
11025;DHT22;22890;51.820;8.682;2022-07-12T15:41:10;27.40;98.30
11025;DHT22;22890;51.820;8.682;2022-07-12T15:43:38;27.40;97.90
11025;DHT22;22890;51.820;8.682;2022-07-12T15:46:10;27.40;97.80
11025;DHT22;22890;51.820;8.682;2022-07-12T15:48:38;27.40;98.00
11025;DHT22;22890;51.820;8.682;2022-07-12T15:51:05;27.40;97.90
11025;DHT22;22890;51.820;8.682;2022-07-12T15:53:32;27.40;97.60
11025;DHT22;22890;51.820;8.682;2022-07-12T15:56:01;27.40;97.50
11025;DHT22;22890;51.820;8.682;2022-07-12T15:58:39;27.40;97.40
11025;DHT22;22890;51.820;8.682;2022-07-12T16:01:06;27.30;97.30
11025;DHT22;22890;51.820;8.682;2022-07-12T16:03:33;27.30;97.60